Inga, Brazil
Current Conditions -  °F | °C
As of 1:00 AM on Thursday 29 Jan 2015 (Local Time) from SBKG Reporting Station
Clear Clear  
Wind Chill: 70°   Ceiling: Unl
Heat Index: 70°   Visibility: 6mi
Dew Point: 68°   Wind: 9mph
Humidity: 94%   Direction: 90°E
Pressure: 29.97"   Gusts: NA
Location:  7.28°S, 35.6°W
Report Text: SBKG 290400Z 09008KT CAVOK 21/20 Q1015
Loading
Personal Weather Stations






























Interactive Weather Map New forecast layout! Learn more

10-Day Weather Forecast

Advertisements
Track Severe Weather on mobile